Time;durP1;ratioP1;P1;durP2;ratioP2;P2;SDS_P1;SDS_P2;PMS_P1;PMS_P2;Temp;Humidity;BMP_temperature;BMP_pressure;BME280_temperature;BME280_humidity;BME280_pressure;Samples;Min_cycle;Max_cycle;Signal;HPM_P1;HPM_P2
2021/01/20 00:01:59;;;;;;;29.80;13.23;;;;;;;-4.32;39.57;102666.84;4921301;29;20040;-85
2021/01/20 00:04:26;;;;;;;29.60;14.55;;;;;;;-3.21;39.05;102816.34;4903081;29;20039;-87
2021/01/20 00:06:52;;;;;;;32.53;14.18;;;;;;;-3.22;38.34;102830.88;4918852;29;20032;-87
2021/01/20 00:09:19;;;;;;;27.98;13.50;;;;;;;-4.17;38.89;102656.81;4918710;29;20031;-87
2021/01/20 00:11:46;;;;;;;29.85;13.07;;;;;;;-3.84;38.48;102711.41;4916952;29;20036;-87
2021/01/20 00:14:18;;;;;;;25.33;13.15;;;;;;;-4.80;38.81;102556.53;4918933;29;20027;-89
2021/01/20 00:16:45;;;;;;;32.08;15.55;;;;;;;-3.55;38.92;102746.44;4916409;29;20024;-86
2021/01/20 00:19:13;;;;;;;38.72;15.77;;;;;;;-3.12;39.05;102791.31;4905027;29;20402;-84
2021/01/20 00:21:40;;;;;;;27.08;13.80;;;;;;;-4.26;38.34;102601.50;4897148;29;20107;-85
2021/01/20 00:24:07;;;;;;;32.30;16.77;;;;;;;-4.17;38.00;102607.25;4878159;29;20506;-90
2021/01/20 00:26:34;;;;;;;29.67;15.75;;;;;;;-2.72;37.69;102844.53;4898305;29;20028;-87
2021/01/20 00:29:01;;;;;;;38.97;17.08;;;;;;;-2.80;37.89;102860.47;4897650;29;20039;-87
2021/01/20 00:31:28;;;;;;;48.30;15.70;;;;;;;-3.39;38.11;102748.91;4881093;29;20037;-88
2021/01/20 00:33:55;;;;;;;33.72;15.95;;;;;;;-3.40;37.77;102703.00;4899125;29;20043;-88
2021/01/20 00:36:22;;;;;;;36.05;13.68;;;;;;;-2.67;37.39;102831.47;4895715;29;20510;-88
2021/01/20 00:38:49;;;;;;;31.30;15.27;;;;;;;-4.12;37.13;102578.03;4898466;29;20037;-88
2021/01/20 00:41:15;;;;;;;38.05;15.30;;;;;;;-2.45;37.19;102839.91;4877394;29;20502;-88
2021/01/20 00:43:42;;;;;;;31.45;15.73;;;;;;;-3.04;36.76;102752.78;4881136;29;20526;-87
2021/01/20 00:46:09;;;;;;;32.45;15.40;;;;;;;-3.16;36.49;102725.63;4881372;29;20037;-86
2021/01/20 00:48:36;;;;;;;29.00;14.82;;;;;;;-2.94;35.97;102767.44;4898924;29;20821;-88
2021/01/20 00:51:03;;;;;;;32.40;15.13;;;;;;;-2.47;36.43;102829.16;4895332;29;20037;-88
2021/01/20 00:53:30;;;;;;;27.20;15.07;;;;;;;-2.38;36.34;102825.78;4892968;29;20513;-88
2021/01/20 00:55:57;;;;;;;33.70;18.15;;;;;;;-3.24;37.23;102676.53;4907980;29;20047;-87
2021/01/20 00:58:23;;;;;;;29.02;16.70;;;;;;;-2.82;37.61;102724.13;4915327;29;20032;-89
2021/01/20 01:00:50;;;;;;;34.03;17.23;;;;;;;-2.13;37.97;102836.66;4915823;29;20401;-87
2021/01/20 01:03:17;;;;;;;28.48;16.73;;;;;;;-2.84;38.52;102721.56;4917658;29;20024;-88
2021/01/20 01:05:44;;;;;;;31.77;14.80;;;;;;;-2.39;38.67;102802.34;4897393;29;20088;-87
2021/01/20 01:08:11;;;;;;;32.80;15.45;;;;;;;-2.28;38.69;102774.41;4890835;29;20032;-87
2021/01/20 01:10:37;;;;;;;25.33;15.20;;;;;;;-2.32;38.31;102758.47;4864176;29;20064;-87
2021/01/20 01:13:04;;;;;;;27.15;15.07;;;;;;;-2.18;37.95;102763.72;4874316;29;20036;-88
2021/01/20 01:15:31;;;;;;;31.75;15.20;;;;;;;-1.48;37.56;102849.94;4908251;29;20037;-88
2021/01/20 01:17:58;;;;;;;25.55;13.93;;;;;;;-3.06;37.31;102601.16;4886744;29;20028;-87
2021/01/20 01:20:25;;;;;;;32.70;15.48;;;;;;;-2.21;36.39;102734.97;4896476;29;20506;-85
2021/01/20 01:22:56;;;;;;;37.17;15.05;;;;;;;-3.23;36.33;102645.75;4899246;29;20033;-83
2021/01/20 01:25:23;;;;;;;28.05;13.80;;;;;;;-3.46;36.39;102591.41;4897873;29;20047;-85
2021/01/20 01:27:50;;;;;;;33.47;14.27;;;;;;;-2.38;36.53;102809.50;4894266;29;20061;-85
2021/01/20 01:30:17;;;;;;;32.10;14.90;;;;;;;-2.81;36.18;102709.59;4915009;29;20041;-83
2021/01/20 01:32:44;;;;;;;28.27;14.10;;;;;;;-1.48;35.42;102896.13;4894789;29;20545;-88
2021/01/20 01:35:12;;;;;;;31.20;14.32;;;;;;;-2.25;34.30;102727.19;4913912;29;20375;-86
2021/01/20 01:37:39;;;;;;;14.70;10.68;;;;;;;-2.79;33.46;102608.19;4917669;29;20032;-88
2021/01/20 01:40:07;;;;;;;20.35;12.90;;;;;;;-1.09;33.35;102860.56;4900792;29;20039;-87
2021/01/20 01:42:33;;;;;;;22.52;12.90;;;;;;;-2.52;32.97;102688.47;4910121;29;20060;-87
2021/01/20 01:45:01;;;;;;;25.67;11.10;;;;;;;-1.44;33.09;102846.84;4894295;29;20043;-88
2021/01/20 01:47:28;;;;;;;22.17;11.18;;;;;;;-1.95;33.32;102770.13;4922438;29;20093;-85
2021/01/20 01:49:56;;;;;;;21.08;10.57;;;;;;;-2.11;33.06;102713.44;4905780;29;20032;-87
2021/01/20 01:52:24;;;;;;;19.67;11.77;;;;;;;-1.42;32.44;102806.84;4896386;29;20486;-87
2021/01/20 01:54:53;;;;;;;20.63;11.20;;;;;;;-2.00;32.56;102676.44;4895966;29;20384;-87
2021/01/20 01:57:21;;;;;;;23.80;10.20;;;;;;;-1.25;32.57;102819.13;4881413;29;20120;-88
2021/01/20 01:59:48;;;;;;;27.35;11.25;;;;;;;-0.94;32.33;102813.13;4895771;29;20024;-88
2021/01/20 02:02:15;;;;;;;20.63;11.18;;;;;;;-1.65;31.91;102710.84;4884521;29;20053;-87
2021/01/20 02:04:42;;;;;;;22.25;11.95;;;;;;;-1.38;32.03;102763.97;4883475;29;20112;-87
2021/01/20 02:07:10;;;;;;;25.63;12.98;;;;;;;-2.46;32.87;102613.03;4891079;29;20028;-87
2021/01/20 02:09:37;;;;;;;22.65;13.88;;;;;;;-2.23;32.91;102600.38;4882524;29;20043;-88
2021/01/20 02:12:25;;;;;;;29.23;15.18;;;;;;;-0.59;32.66;102824.84;4864168;29;20093;-87
2021/01/20 02:15:21;;;;;;;27.23;13.38;;;;;;;-0.65;32.12;102750.03;4879324;29;20052;-86
2021/01/20 02:17:57;;;;;;;22.40;11.82;;;;;;;-0.19;32.46;102820.69;4883301;29;20040;-87
2021/01/20 02:20:44;;;;;;;23.48;11.85;;;;;;;-0.39;31.60;102784.25;4902640;29;20019;-85
2021/01/20 02:23:17;;;;;;;23.25;12.57;;;;;;;-0.89;31.48;102653.13;4888313;29;20040;-85
2021/01/20 02:26:15;;;;;;;27.65;13.10;;;;;;;0.38;30.72;102796.00;4895887;29;20032;-85
2021/01/20 02:28:56;;;;;;;29.40;13.38;;;;;;;0.29;30.73;102792.19;4894337;29;20406;-88
2021/01/20 02:31:26;;;;;;;29.73;13.98;;;;;;;0.28;30.55;102779.56;4896039;29;20032;-87
2021/01/20 02:33:58;;;;;;;30.58;12.00;;;;;;;-0.83;30.94;102589.22;4894838;29;20468;-87
2021/01/20 02:36:26;;;;;;;33.28;14.68;;;;;;;0.07;30.66;102739.53;4912200;29;20398;-87
2021/01/20 02:38:53;;;;;;;26.55;12.80;;;;;;;-1.42;30.85;102528.81;4914748;29;20076;-89
2021/01/20 02:41:25;;;;;;;27.08;13.45;;;;;;;-0.91;30.49;102553.63;4917075;29;20507;-87
2021/01/20 02:43:52;;;;;;;23.20;13.80;;;;;;;-0.22;30.14;102639.44;4918420;29;20028;-84
2021/01/20 02:46:21;;;;;;;21.40;13.25;;;;;;;0.04;30.30;102668.09;4896707;29;20545;-84
2021/01/20 02:48:49;;;;;;;36.97;12.98;;;;;;;-0.67;29.77;102538.97;4897902;29;20024;-83
2021/01/20 02:51:42;;;;;;;21.23;12.02;;;;;;;-0.81;29.59;102505.63;4880648;29;20092;-86
2021/01/20 02:54:13;;;;;;;17.00;10.10;;;;;;;-0.37;29.44;102569.97;4862027;29;20041;-88
2021/01/20 02:56:44;;;;;;;35.17;12.30;;;;;;;-0.12;28.70;102560.50;4895376;29;20025;-87
2021/01/20 02:59:12;;;;;;;21.08;10.55;;;;;;;0.59;29.57;102654.22;4900288;29;20039;-86
2021/01/20 03:01:44;;;;;;;31.00;12.43;;;;;;;0.56;27.99;102610.91;4889526;29;20052;-85
2021/01/20 03:04:16;;;;;;;24.75;11.50;;;;;;;0.20;28.04;102542.34;4878882;29;20032;-85
2021/01/20 03:06:45;;;;;;;25.52;12.93;;;;;;;0.30;27.51;102559.56;4873088;29;20029;-84
2021/01/20 03:09:14;;;;;;;27.23;13.25;;;;;;;0.04;27.58;102467.44;4879325;29;20013;-86
2021/01/20 03:11:49;;;;;;;23.73;10.80;;;;;;;0.47;27.74;102495.38;4901267;29;20032;-86
2021/01/20 03:14:24;;;;;;;24.17;12.60;;;;;;;1.53;26.95;102643.13;4870535;29;20029;-84
2021/01/20 03:16:53;;;;;;;28.10;13.88;;;;;;;0.89;26.87;102535.19;4883319;29;20044;-87
2021/01/20 03:19:20;;;;;;;22.40;11.33;;;;;;;0.43;26.38;102433.13;4895039;29;20115;-87
2021/01/20 03:21:47;;;;;;;25.35;10.85;;;;;;;0.73;27.58;102456.69;4894283;29;20324;-85
2021/01/20 03:24:14;;;;;;;23.38;12.07;;;;;;;0.97;25.89;102473.63;4894433;29;20041;-84
2021/01/20 03:26:41;;;;;;;24.65;11.38;;;;;;;1.06;26.04;102480.94;4879523;29;20032;-87
2021/01/20 03:29:07;;;;;;;19.50;10.98;;;;;;;1.29;26.08;102491.56;4874571;29;20483;-84
2021/01/20 03:31:34;;;;;;;22.17;13.10;;;;;;;1.91;25.89;102590.34;4888330;29;20127;-85
2021/01/20 03:34:01;;;;;;;26.10;11.50;;;;;;;1.43;26.66;102526.59;4913059;29;20379;-86
2021/01/20 03:36:28;;;;;;;21.80;10.20;;;;;;;0.93;26.18;102408.47;4904296;29;20520;-86
2021/01/20 03:38:55;;;;;;;18.48;10.18;;;;;;;1.50;26.03;102478.59;4894389;29;20040;-84
2021/01/20 03:41:22;;;;;;;29.85;12.18;;;;;;;1.20;26.04;102431.38;4897130;29;20032;-86
2021/01/20 03:43:49;;;;;;;27.02;12.65;;;;;;;1.07;26.45;102419.94;4897888;29;20056;-87
2021/01/20 03:46:16;;;;;;;20.77;10.07;;;;;;;2.04;26.40;102534.53;4881279;29;20028;-85
2021/01/20 03:48:43;;;;;;;23.20;11.48;;;;;;;2.11;26.12;102532.03;4897157;29;20029;-86
2021/01/20 03:51:10;;;;;;;27.77;11.18;;;;;;;1.62;26.31;102434.75;4881712;29;20158;-83
2021/01/20 03:53:37;;;;;;;16.95;10.88;;;;;;;1.84;26.35;102432.66;4899060;29;20517;-84
2021/01/20 03:56:03;;;;;;;18.13;10.95;;;;;;;1.74;24.93;102422.63;4896896;29;20504;-84
2021/01/20 03:58:30;;;;;;;23.48;12.57;;;;;;;1.64;24.80;102432.72;4917719;29;20039;-84
2021/01/20 04:00:57;;;;;;;22.45;11.88;;;;;;;2.55;24.89;102556.88;4916666;29;20055;-84
2021/01/20 04:03:24;;;;;;;26.98;11.75;;;;;;;2.27;24.72;102472.13;4903382;29;20032;-84
2021/01/20 04:05:51;;;;;;;16.38;10.02;;;;;;;2.32;24.54;102483.47;4925867;29;20485;-85
2021/01/20 04:08:18;;;;;;;22.08;11.18;;;;;;;2.81;24.78;102545.22;4898285;29;20478;-83
2021/01/20 04:10:45;;;;;;;21.90;12.13;;;;;;;2.41;24.48;102472.63;4892832;29;20035;-83
2021/01/20 04:13:12;;;;;;;26.63;11.95;;;;;;;2.49;24.61;102459.06;4881570;29;20032;-82
2021/01/20 04:15:38;;;;;;;22.52;11.15;;;;;;;2.60;25.55;102447.03;4898331;29;20032;-86
2021/01/20 04:18:05;;;;;;;23.80;12.13;;;;;;;2.74;25.05;102468.38;4896866;29;20033;-83
2021/01/20 04:20:32;;;;;;;24.75;10.82;;;;;;;1.81;25.10;102269.94;4897794;29;20033;-82
2021/01/20 04:22:59;;;;;;;25.73;13.77;;;;;;;3.11;24.64;102454.69;4898346;29;20028;-83
2021/01/20 04:25:26;;;;;;;24.40;11.85;;;;;;;3.20;25.00;102472.06;4897417;29;20036;-85
2021/01/20 04:27:53;;;;;;;23.17;11.32;;;;;;;2.21;24.94;102336.09;4870996;29;20075;-84
2021/01/20 04:30:20;;;;;;;19.92;12.05;;;;;;;2.58;25.33;102414.41;4876939;29;20037;-87
2021/01/20 04:32:47;;;;;;;25.35;13.23;;;;;;;1.95;25.23;102271.28;4881400;29;20039;-84
2021/01/20 04:35:14;;;;;;;29.08;13.02;;;;;;;1.84;25.19;102283.28;4881338;29;20036;-85
2021/01/20 04:37:40;;;;;;;27.98;15.05;;;;;;;3.20;25.43;102493.94;4897883;29;20045;-83
2021/01/20 04:40:08;;;;;;;18.77;10.98;;;;;;;2.68;24.82;102386.09;4882439;29;20033;-83
2021/01/20 04:42:35;;;;;;;32.67;12.43;;;;;;;2.66;24.73;102358.91;4896871;29;20112;-82
2021/01/20 04:45:02;;;;;;;18.00;11.23;;;;;;;2.26;24.63;102262.69;4887175;29;20068;-81
2021/01/20 04:47:30;;;;;;;28.65;11.27;;;;;;;3.05;24.50;102374.09;4902696;29;20036;-82
2021/01/20 04:49:59;;;;;;;23.25;10.32;;;;;;;2.89;24.02;102349.34;4894648;29;20043;-84
2021/01/20 04:52:28;;;;;;;25.35;13.77;;;;;;;3.39;24.35;102430.78;4918502;29;20028;-82
2021/01/20 04:54:58;;;;;;;26.80;12.90;;;;;;;2.19;23.96;102226.06;4901117;29;20048;-83
2021/01/20 04:57:25;;;;;;;27.23;13.65;;;;;;;3.26;23.66;102405.69;4917351;29;20080;-84
2021/01/20 04:59:52;;;;;;;23.08;12.07;;;;;;;2.13;23.97;102213.06;4916893;29;20024;-82
2021/01/20 05:02:21;;;;;;;30.40;11.25;;;;;;;2.87;24.10;102330.34;4915199;29;20044;-81
2021/01/20 05:04:51;;;;;;;18.30;11.18;;;;;;;3.14;23.82;102345.75;4916363;29;20036;-83
2021/01/20 05:07:19;;;;;;;18.27;10.73;;;;;;;3.23;23.86;102362.22;4899372;29;20049;-82
2021/01/20 05:09:46;;;;;;;18.88;11.85;;;;;;;3.30;23.94;102371.50;4914802;29;20092;-83
2021/01/20 05:12:35;;;;;;;21.75;10.13;;;;;;;4.01;23.72;102447.22;4901713;29;20095;-85
2021/01/20 05:15:05;;;;;;;18.90;9.88;;;;;;;3.66;23.78;102407.00;4917017;29;20028;-83
2021/01/20 05:17:36;;;;;;;13.77;9.30;;;;;;;3.00;23.82;102308.03;4908362;29;20120;-83
2021/01/20 05:20:06;;;;;;;17.02;9.48;;;;;;;3.28;23.57;102327.03;4896677;29;20036;-83
2021/01/20 05:22:33;;;;;;;12.93;9.90;;;;;;;3.36;23.48;102379.09;4891331;29;20036;-83
2021/01/20 05:25:04;;;;;;;18.05;8.80;;;;;;;3.08;24.06;102332.72;4897660;29;20536;-84
2021/01/20 05:27:33;;;;;;;14.68;9.05;;;;;;;3.65;23.92;102427.19;4880946;29;20038;-83
2021/01/20 05:30:08;;;;;;;18.23;8.32;;;;;;;3.39;23.91;102395.19;4895769;29;20108;-83
2021/01/20 05:32:35;;;;;;;18.40;9.48;;;;;;;3.77;23.72;102457.03;4897042;29;20080;-83
2021/01/20 05:35:06;;;;;;;13.20;8.23;;;;;;;3.52;23.64;102413.06;4887184;29;20092;-81
2021/01/20 05:37:44;;;;;;;17.30;8.40;;;;;;;2.63;24.02;102268.09;4898663;29;20115;-83
2021/01/20 05:40:14;;;;;;;16.40;7.95;;;;;;;3.93;23.85;102456.28;4896420;29;20040;-81
2021/01/20 05:42:54;;;;;;;21.43;7.57;;;;;;;3.28;24.29;102330.59;4902276;29;20395;-83
2021/01/20 05:45:24;;;;;;;14.52;8.27;;;;;;;2.94;23.96;102260.28;4898401;29;20040;-82
2021/01/20 05:48:20;;;;;;;23.13;9.55;;;;;;;4.15;24.00;102449.34;4897030;29;20036;-83
2021/01/20 05:50:57;;;;;;;17.67;7.68;;;;;;;4.16;24.40;102447.47;4861684;29;20049;-85
2021/01/20 05:53:24;;;;;;;21.45;8.13;;;;;;;2.97;24.96;102270.06;4885782;29;20036;-83
2021/01/20 05:56:05;;;;;;;18.65;7.78;;;;;;;3.87;24.73;102413.91;4878415;29;20101;-82
2021/01/20 05:58:39;;;;;;;17.20;8.93;;;;;;;3.82;25.09;102421.78;4891066;29;20028;-82
2021/01/20 06:01:10;;;;;;;17.42;9.88;;;;;;;3.03;24.91;102283.06;4891873;29;20055;-83
2021/01/20 06:03:38;;;;;;;14.63;8.40;;;;;;;3.80;25.09;102416.47;4896112;29;20060;-82
2021/01/20 06:06:06;;;;;;;21.98;8.98;;;;;;;4.08;24.34;102437.31;4895798;29;20024;-83
2021/01/20 06:08:35;;;;;;;15.02;7.82;;;;;;;3.87;23.67;102402.97;4879491;29;20574;-84
2021/01/20 06:11:03;;;;;;;21.33;7.25;;;;;;;4.15;23.58;102443.84;4897373;29;20479;-83
2021/01/20 06:13:31;;;;;;;17.75;8.55;;;;;;;3.89;23.90;102403.66;4879839;29;20044;-82
2021/01/20 06:16:19;;;;;;;16.73;7.57;;;;;;;3.94;24.27;102414.97;4860563;29;20074;-83
2021/01/20 06:18:49;;;;;;;14.02;7.25;;;;;;;4.21;24.25;102440.44;4888839;29;20032;-82
2021/01/20 06:21:19;;;;;;;15.30;7.47;;;;;;;3.47;24.07;102308.63;4877518;29;20450;-84
2021/01/20 06:24:08;;;;;;;13.82;7.82;;;;;;;4.33;23.94;102442.91;4886594;29;20041;-83
2021/01/20 06:26:43;;;;;;;12.10;7.93;;;;;;;3.70;24.03;102360.94;4896893;29;20040;-84
2021/01/20 06:29:14;;;;;;;14.27;7.50;;;;;;;4.38;24.07;102459.69;4895155;29;20029;-82
2021/01/20 06:31:46;;;;;;;12.70;8.25;;;;;;;4.09;24.34;102407.00;4876103;29;20064;-80
2021/01/20 06:34:14;;;;;;;16.58;8.10;;;;;;;3.37;24.89;102282.22;4877205;29;20072;-83
2021/01/20 06:36:41;;;;;;;14.93;8.73;;;;;;;3.54;25.42;102299.59;4877268;29;20033;-82
2021/01/20 06:39:26;;;;;;;13.18;8.32;;;;;;;4.45;25.60;102433.31;4877245;29;20029;-83
2021/01/20 06:41:53;;;;;;;16.55;8.30;;;;;;;4.13;25.32;102396.56;4877170;29;20039;-81
2021/01/20 06:44:20;;;;;;;10.75;9.40;;;;;;;3.94;24.62;102340.97;4894548;29;20047;-81
2021/01/20 06:46:56;;;;;;;10.68;7.22;;;;;;;4.39;25.09;102439.47;4879022;29;20044;-82
2021/01/20 06:49:23;;;;;;;16.48;7.75;;;;;;;4.05;24.75;102382.84;4897009;29;20379;-80
2021/01/20 06:52:10;;;;;;;17.20;6.50;;;;;;;4.51;24.69;102434.53;4896706;29;20032;-82
2021/01/20 06:54:45;;;;;;;18.75;8.93;;;;;;;3.84;24.84;102321.09;4898930;29;20056;-81
2021/01/20 06:57:32;;;;;;;17.38;6.70;;;;;;;3.79;24.59;102315.25;4897199;29;20029;-85
2021/01/20 07:00:11;;;;;;;17.83;7.70;;;;;;;4.56;24.09;102436.78;4896411;29;20024;-83
2021/01/20 07:02:57;;;;;;;14.52;7.82;;;;;;;3.85;24.31;102336.50;4894934;29;20049;-81
2021/01/20 07:05:38;;;;;;;14.45;7.22;;;;;;;4.46;24.29;102431.44;4895274;29;20093;-84
2021/01/20 07:08:09;;;;;;;15.02;7.68;;;;;;;4.45;24.14;102427.00;4895720;29;20035;-81
2021/01/20 07:11:02;;;;;;;13.20;7.40;;;;;;;4.36;24.32;102424.19;4895538;29;20600;-83
2021/01/20 07:13:34;;;;;;;11.77;7.28;;;;;;;3.60;24.13;102295.34;4893803;29;20072;-81
2021/01/20 07:16:04;;;;;;;14.60;6.90;;;;;;;3.50;23.77;102286.41;4896734;29;20029;-83
2021/01/20 07:18:31;;;;;;;15.68;6.28;;;;;;;3.73;23.85;102333.22;4899223;29;20192;-82
2021/01/20 07:20:58;;;;;;;12.38;7.10;;;;;;;3.87;24.29;102353.63;4900205;29;20804;-83
2021/01/20 07:23:25;;;;;;;14.85;6.47;;;;;;;3.60;24.35;102325.47;4899102;29;20032;-82
2021/01/20 07:25:53;;;;;;;11.23;8.60;;;;;;;3.56;24.68;102310.38;4898113;29;20096;-80
2021/01/20 07:28:21;;;;;;;10.93;7.32;;;;;;;4.14;23.98;102425.69;4898867;29;20482;-82
2021/01/20 07:30:49;;;;;;;15.05;6.82;;;;;;;3.80;24.63;102360.81;4878732;29;20530;-82
2021/01/20 07:33:21;;;;;;;11.68;6.60;;;;;;;4.07;24.18;102389.00;4871369;29;20493;-82
2021/01/20 07:35:48;;;;;;;10.00;6.18;;;;;;;3.50;24.27;102325.59;4907056;29;20040;-83
2021/01/20 07:38:15;;;;;;;14.25;7.15;;;;;;;4.02;24.69;102427.00;4917640;29;20035;-81
2021/01/20 07:40:44;;;;;;;9.48;7.22;;;;;;;3.54;24.69;102337.94;4916046;29;20032;-82
2021/01/20 07:43:24;;;;;;;13.10;7.15;;;;;;;3.98;24.60;102404.53;4911318;29;20036;-82
2021/01/20 07:45:52;;;;;;;18.75;7.65;;;;;;;3.36;24.50;102290.59;4881396;29;20095;-81
2021/01/20 07:48:30;;;;;;;12.18;7.13;;;;;;;3.87;24.89;102375.56;4884675;29;20036;-83
2021/01/20 07:50:57;;;;;;;17.20;7.78;;;;;;;3.53;25.07;102313.44;4915878;29;20036;-82
2021/01/20 07:53:24;;;;;;;17.35;8.70;;;;;;;3.55;24.63;102312.25;4916078;29;20123;-83
2021/01/20 07:55:55;;;;;;;15.77;9.35;;;;;;;4.17;24.74;102408.06;4902609;29;20040;-83
2021/01/20 07:58:29;;;;;;;23.38;8.30;;;;;;;3.50;24.83;102303.69;4901165;29;20025;-81
2021/01/20 08:00:56;;;;;;;23.33;9.52;;;;;;;4.14;25.09;102398.28;4881485;29;20409;-83
2021/01/20 08:03:36;;;;;;;12.30;8.15;;;;;;;4.04;25.22;102384.69;4898262;29;20116;-82
2021/01/20 08:06:10;;;;;;;18.63;10.60;;;;;;;4.10;25.19;102405.97;4900560;29;20059;-83
2021/01/20 08:08:54;;;;;;;15.07;9.40;;;;;;;3.38;25.22;102288.59;4917178;29;20284;-81
2021/01/20 08:11:22;;;;;;;15.50;8.73;;;;;;;4.13;25.15;102406.66;4917199;29;20068;-83
2021/01/20 08:13:52;;;;;;;14.70;9.70;;;;;;;3.97;25.46;102403.72;4915811;29;20406;-80
2021/01/20 08:16:20;;;;;;;20.90;10.13;;;;;;;3.11;25.69;102271.31;4885825;29;20655;-82
2021/01/20 08:18:47;;;;;;;20.08;11.65;;;;;;;3.60;25.76;102366.53;4883148;29;20036;-82
2021/01/20 08:21:14;;;;;;;27.98;13.32;;;;;;;3.52;26.26;102347.34;4898909;29;20021;-81
2021/01/20 08:23:50;;;;;;;30.05;16.30;;;;;;;3.74;26.23;102405.31;4916246;29;20035;-80
2021/01/20 08:26:26;;;;;;;32.90;16.95;;;;;;;2.97;26.45;102291.94;4916364;29;20032;-82
2021/01/20 08:29:13;;;;;;;28.85;16.83;;;;;;;3.54;27.11;102397.31;4918718;29;20036;-80
2021/01/20 08:31:41;;;;;;;33.10;16.30;;;;;;;3.53;26.89;102406.56;4921242;29;20028;-84
2021/01/20 08:34:35;;;;;;;32.70;16.10;;;;;;;3.57;27.13;102413.44;4918219;29;20024;-75
2021/01/20 08:37:04;;;;;;;29.40;17.13;;;;;;;2.14;27.42;102193.75;4900476;29;20060;-83
2021/01/20 08:39:36;;;;;;;29.80;18.05;;;;;;;3.18;27.57;102342.69;4885082;29;20033;-90
2021/01/20 08:42:21;;;;;;;34.90;17.30;;;;;;;3.55;27.86;102415.47;4900860;29;20037;-88
2021/01/20 08:45:16;;;;;;;32.47;18.80;;;;;;;3.51;28.31;102405.88;4898250;29;20041;-85
2021/01/20 08:48:02;;;;;;;30.63;16.88;;;;;;;3.47;27.88;102405.34;4898875;29;20036;-85
2021/01/20 08:50:51;;;;;;;31.17;17.38;;;;;;;3.72;27.88;102410.94;4899317;29;20029;-88
2021/01/20 08:53:30;;;;;;;28.98;16.52;;;;;;;3.41;27.71;102387.66;4901089;29;20148;-88
2021/01/20 08:55:58;;;;;;;30.33;15.70;;;;;;;2.68;27.79;102271.22;4904828;29;20119;-87
2021/01/20 08:58:27;;;;;;;25.20;15.25;;;;;;;3.31;28.16;102367.75;4899841;29;20028;-92
2021/01/20 09:01:03;;;;;;;34.53;15.43;;;;;;;3.29;28.25;102369.81;4919841;29;20059;-91
2021/01/20 09:03:31;;;;;;;30.40;14.98;;;;;;;3.53;28.88;102412.03;4892058;29;20033;-90
2021/01/20 09:06:00;;;;;;;20.48;12.15;;;;;;;3.51;28.49;102373.00;4915607;29;20032;-88
2021/01/20 09:08:40;;;;;;;27.73;15.57;;;;;;;3.68;28.32;102421.38;4901966;29;20076;-89
2021/01/20 09:11:17;;;;;;;25.33;15.93;;;;;;;2.45;28.66;102222.53;4919399;29;20028;-87
2021/01/20 09:13:46;;;;;;;37.95;14.93;;;;;;;3.60;28.54;102363.81;4917779;29;20036;-89
2021/01/20 09:16:14;;;;;;;31.02;14.80;;;;;;;3.59;28.48;102359.34;4910195;29;20036;-90
2021/01/20 09:18:40;;;;;;;29.88;15.20;;;;;;;3.28;28.46;102307.84;4903117;29;20079;-89
2021/01/20 09:21:07;;;;;;;42.08;17.17;;;;;;;3.49;28.59;102351.25;4922885;29;20025;-90
2021/01/20 09:23:34;;;;;;;54.08;18.42;;;;;;;3.22;28.21;102297.56;4922803;29;20033;-90
2021/01/20 09:26:01;;;;;;;34.42;17.40;;;;;;;3.82;27.81;102403.44;4917841;29;20032;-87
2021/01/20 09:28:28;;;;;;;33.58;17.45;;;;;;;3.73;27.99;102425.53;4901620;29;20039;-88
2021/01/20 09:30:55;;;;;;;36.83;19.70;;;;;;;2.84;28.44;102276.81;4916563;29;20154;-88
2021/01/20 09:33:22;;;;;;;29.10;16.48;;;;;;;3.28;28.69;102360.72;4891855;29;20033;-90
2021/01/20 09:35:49;;;;;;;27.50;19.65;;;;;;;3.06;28.45;102322.94;4898804;29;20039;-89
2021/01/20 09:38:17;;;;;;;37.30;21.42;;;;;;;2.18;28.65;102170.56;4916987;29;20039;-90
2021/01/20 09:40:44;;;;;;;32.78;16.33;;;;;;;3.85;28.29;102413.22;4905919;29;20479;-90
2021/01/20 09:43:11;;;;;;;34.30;16.67;;;;;;;3.90;28.67;102413.59;4879354;29;20049;-94
2021/01/20 09:45:47;;;;;;;32.55;16.67;;;;;;;3.21;28.96;102301.31;4904263;29;20099;-88
2021/01/20 09:48:16;;;;;;;39.65;18.92;;;;;;;3.08;28.78;102280.72;4900218;29;20034;-89
2021/01/20 09:50:44;;;;;;;37.08;19.58;;;;;;;3.77;29.11;102410.44;4918346;29;20123;-94
2021/01/20 09:53:12;;;;;;;39.72;19.42;;;;;;;3.73;29.07;102390.75;4918198;29;20036;-92
2021/01/20 09:55:39;;;;;;;39.47;19.73;;;;;;;3.68;29.56;102410.41;4878252;29;20047;-89
2021/01/20 09:58:06;;;;;;;40.53;20.25;;;;;;;3.44;29.50;102361.00;4911094;29;20032;-92
2021/01/20 10:00:35;;;;;;;46.08;19.90;;;;;;;2.94;29.85;102281.31;4896576;29;20028;-86
2021/01/20 10:03:06;;;;;;;74.50;19.40;;;;;;;2.66;30.53;102259.59;4911233;29;20075;-87
2021/01/20 10:05:33;;;;;;;44.60;21.70;;;;;;;3.62;30.45;102382.84;4898283;29;20040;-86
2021/01/20 10:08:00;;;;;;;41.50;21.23;;;;;;;2.56;30.64;102218.69;4906390;29;20032;-86
2021/01/20 10:10:27;;;;;;;45.65;22.10;;;;;;;2.48;30.42;102224.09;4912548;29;20032;-87
2021/01/20 10:12:54;;;;;;;38.47;20.42;;;;;;;3.38;30.56;102354.28;4912503;29;20039;-89
2021/01/20 10:15:23;;;;;;;39.05;20.98;;;;;;;3.39;30.97;102351.38;4897219;29;20035;-86
2021/01/20 10:17:52;;;;;;;46.55;19.95;;;;;;;3.35;31.12;102336.31;4899092;29;20087;-90
2021/01/20 10:20:19;;;;;;;37.22;17.75;;;;;;;2.81;31.09;102265.31;4904459;29;20043;-89
2021/01/20 10:22:46;;;;;;;36.28;18.85;;;;;;;2.60;30.90;102215.47;4900590;29;20024;-91
2021/01/20 10:25:14;;;;;;;33.60;17.77;;;;;;;3.23;30.71;102318.44;4912491;29;20036;-88
2021/01/20 10:27:41;;;;;;;41.08;17.13;;;;;;;3.48;30.35;102376.06;4913147;29;20049;-88
2021/01/20 10:30:08;;;;;;;32.88;18.67;;;;;;;3.71;30.37;102411.97;4887221;29;20036;-87
2021/01/20 10:32:35;;;;;;;37.10;19.63;;;;;;;3.69;30.17;102389.38;4883556;29;20021;-88
2021/01/20 10:35:08;;;;;;;47.13;19.17;;;;;;;2.85;29.69;102242.13;4885068;29;20035;-86
2021/01/20 10:37:35;;;;;;;33.08;17.60;;;;;;;2.86;30.09;102257.50;4898350;29;20029;-86
2021/01/20 10:40:02;;;;;;;33.65;17.88;;;;;;;3.62;30.05;102391.88;4908696;29;20394;-87
2021/01/20 10:42:29;;;;;;;38.03;18.73;;;;;;;2.77;29.39;102237.44;4898153;29;20111;-86
2021/01/20 10:44:56;;;;;;;35.65;18.38;;;;;;;2.93;29.47;102279.59;4912416;29;20060;-87
2021/01/20 10:47:22;;;;;;;31.83;18.30;;;;;;;2.45;30.02;102206.97;4913897;29;20042;-87
2021/01/20 10:49:49;;;;;;;35.75;19.05;;;;;;;3.60;29.83;102396.69;4890386;29;20478;-87
2021/01/20 10:52:16;;;;;;;33.97;16.38;;;;;;;2.15;30.14;102180.97;4912889;29;20028;-85
2021/01/20 10:54:43;;;;;;;32.67;18.02;;;;;;;1.80;29.99;102076.19;4895994;29;20035;-87
2021/01/20 10:57:10;;;;;;;30.48;16.27;;;;;;;3.37;29.50;102304.13;4896264;29;20032;-88
2021/01/20 10:59:41;;;;;;;40.33;20.88;;;;;;;3.38;29.26;102297.63;4902920;29;20124;-91
2021/01/20 11:02:09;;;;;;;38.35;18.52;;;;;;;1.56;29.63;101995.81;4900206;29;20056;-90
2021/01/20 11:04:37;;;;;;;29.63;17.20;;;;;;;3.83;29.68;102363.22;4898178;29;20040;-89
2021/01/20 11:07:04;;;;;;;44.78;18.40;;;;;;;3.40;29.47;102309.28;4894823;29;20060;-89
2021/01/20 11:09:31;;;;;;;40.75;17.98;;;;;;;3.74;29.16;102380.66;4898457;29;20028;-89
2021/01/20 11:11:58;;;;;;;36.47;19.27;;;;;;;3.77;28.73;102374.84;4901087;29;20047;-89
2021/01/20 11:14:29;;;;;;;24.35;15.40;;;;;;;3.53;28.90;102340.84;4911260;29;20032;-87
2021/01/20 11:16:57;;;;;;;28.42;15.82;;;;;;;2.87;28.61;102238.16;4914046;29;20079;-88
2021/01/20 11:19:24;;;;;;;29.35;17.80;;;;;;;3.43;28.69;102324.53;4892954;29;20028;-89
2021/01/20 11:21:51;;;;;;;34.22;15.80;;;;;;;2.46;29.16;102202.38;4910448;29;20086;-88
2021/01/20 11:24:18;;;;;;;38.10;16.95;;;;;;;3.25;29.27;102305.44;4913974;29;20479;-87
2021/01/20 11:26:46;;;;;;;42.53;18.20;;;;;;;3.66;29.42;102374.13;4892255;29;20474;-88
2021/01/20 11:29:13;;;;;;;27.25;17.10;;;;;;;3.12;28.94;102298.53;4892932;29;20028;-90
2021/01/20 11:31:41;;;;;;;36.15;19.60;;;;;;;3.23;28.90;102302.88;4914927;29;20021;-89